Time;durP1;ratioP1;P1;durP2;ratioP2;P2;SDS_P1;SDS_P2;PMS_P1;PMS_P2;Temp;Humidity;BMP_temperature;BMP_pressure;BME280_temperature;BME280_humidity;BME280_pressure;Samples;Min_cycle;Max_cycle;Signal;HPM_P1;HPM_P2
2022/05/25 00:01:00;;;;;;;9.97;4.43;;;;;;;6.55;62.72;101566.97;5112831;28;20043;-63
2022/05/25 00:03:28;;;;;;;11.27;5.63;;;;;;;6.50;62.70;101569.97;5112812;28;20055;-66
2022/05/25 00:05:55;;;;;;;11.75;4.45;;;;;;;6.48;63.45;101563.94;5113303;28;20047;-64
2022/05/25 00:08:21;;;;;;;16.83;12.37;;;;;;;6.46;63.28;101573.81;5113187;28;20036;-66
2022/05/25 00:10:46;;;;;;;6.43;4.20;;;;;;;6.44;63.67;101570.44;5113025;28;20473;-64
2022/05/25 00:13:12;;;;;;;8.43;4.40;;;;;;;6.38;63.96;101570.06;5112815;28;20040;-64
2022/05/25 00:15:37;;;;;;;8.40;4.00;;;;;;;6.32;64.03;101574.00;5112603;28;20031;-64
2022/05/25 00:18:03;;;;;;;7.70;3.77;;;;;;;6.31;64.10;101574.97;5093561;28;20028;-64
2022/05/25 00:20:28;;;;;;;12.40;4.10;;;;;;;6.30;64.50;101586.50;5110933;28;20114;-64
2022/05/25 00:22:56;;;;;;;7.27;3.67;;;;;;;6.26;64.67;101578.91;5110968;28;20437;-64
2022/05/25 00:25:24;;;;;;;5.13;3.65;;;;;;;6.29;64.13;101582.16;5111105;28;20038;-66
2022/05/25 00:27:49;;;;;;;13.27;6.60;;;;;;;6.28;64.78;101584.94;5111233;28;20031;-63
2022/05/25 00:30:17;;;;;;;11.70;4.63;;;;;;;6.16;65.15;101573.47;5110837;28;20030;-64
2022/05/25 00:32:43;;;;;;;9.53;4.87;;;;;;;6.12;65.52;101574.66;5111859;28;20040;-65
2022/05/25 00:35:12;;;;;;;7.87;5.37;;;;;;;6.09;65.41;101580.19;5112830;28;20032;-65
2022/05/25 00:37:39;;;;;;;6.43;4.28;;;;;;;6.06;64.92;101575.94;5112724;28;20031;-64
2022/05/25 00:40:05;;;;;;;7.63;3.83;;;;;;;6.05;65.21;101568.97;5112577;28;20046;-64
2022/05/25 00:42:31;;;;;;;6.67;3.93;;;;;;;6.07;64.87;101571.50;5112880;28;20123;-63
2022/05/25 00:44:56;;;;;;;7.17;3.20;;;;;;;6.08;64.83;101573.22;5112293;28;20188;-65
2022/05/25 00:47:25;;;;;;;5.27;3.87;;;;;;;6.08;64.92;101574.06;5112891;28;20044;-64
2022/05/25 00:49:52;;;;;;;6.82;4.10;;;;;;;6.09;64.36;101574.91;5112567;28;20184;-64
2022/05/25 00:52:17;;;;;;;4.47;3.73;;;;;;;6.12;64.89;101575.50;5112522;28;20061;-65
2022/05/25 00:54:49;;;;;;;9.43;3.80;;;;;;;6.10;64.88;101568.66;5112251;28;20028;-64
2022/05/25 00:57:29;;;;;;;6.20;4.40;;;;;;;6.07;65.16;101571.50;5112437;28;20122;-64
2022/05/25 01:00:03;;;;;;;7.53;4.03;;;;;;;5.89;65.63;101539.31;5112408;28;20035;-65
2022/05/25 01:02:30;;;;;;;8.80;4.10;;;;;;;6.07;65.61;101567.06;5112435;28;20391;-65
2022/05/25 01:04:56;;;;;;;6.83;4.00;;;;;;;5.99;65.09;101552.72;5112024;28;20048;-65
2022/05/25 01:07:43;;;;;;;5.73;4.03;;;;;;;6.15;65.14;101569.16;5112149;28;20085;-66
2022/05/25 01:10:42;;;;;;;7.20;4.00;;;;;;;6.17;65.24;101569.88;5112205;28;20441;-64
2022/05/25 01:13:49;;;;;;;5.53;3.60;;;;;;;6.15;65.75;101569.16;5112653;28;20039;-64
2022/05/25 01:16:35;;;;;;;8.43;4.37;;;;;;;6.13;65.60;101579.84;5029314;28;20512;-64
2022/05/25 01:19:29;;;;;;;6.43;3.70;;;;;;;6.13;65.33;101577.19;5106451;28;20051;-65
2022/05/25 01:22:17;;;;;;;8.87;5.43;;;;;;;6.16;65.55;101579.59;5112194;28;20035;-64
2022/05/25 01:25:07;;;;;;;22.93;8.27;;;;;;;6.16;65.84;101570.81;5112150;28;20041;-65
2022/05/25 01:27:38;;;;;;;16.43;8.67;;;;;;;6.17;65.79;101567.22;5112191;28;20102;-64
2022/05/25 01:30:13;;;;;;;20.27;8.93;;;;;;;6.16;66.02;101565.53;5112299;28;20047;-64
2022/05/25 01:32:47;;;;;;;30.30;11.03;;;;;;;6.20;65.70;101561.69;5093968;28;20043;-64
2022/05/25 01:35:25;;;;;;;24.77;9.77;;;;;;;6.19;66.69;101566.16;5094124;28;20047;-63
2022/05/25 01:38:04;;;;;;;17.40;8.43;;;;;;;6.19;66.02;101573.25;5112125;28;20521;-65
2022/05/25 01:40:59;;;;;;;12.25;6.47;;;;;;;6.20;65.98;101569.63;5112098;28;20031;-63
2022/05/25 01:43:32;;;;;;;12.20;6.03;;;;;;;6.16;65.94;101565.53;5112178;28;20034;-65
2022/05/25 01:46:05;;;;;;;10.00;5.77;;;;;;;6.19;66.60;101570.59;5112547;28;20032;-65
2022/05/25 01:48:35;;;;;;;12.20;5.47;;;;;;;6.19;66.41;101571.44;5115983;28;20089;-64
2022/05/25 01:51:06;;;;;;;8.33;4.53;;;;;;;6.19;66.78;101573.25;5115957;28;20035;-65
2022/05/25 01:53:38;;;;;;;8.63;4.87;;;;;;;6.20;67.45;101570.47;5115745;28;20028;-64
2022/05/25 01:56:07;;;;;;;9.53;4.63;;;;;;;6.21;67.21;101569.53;5115784;28;20043;-65
2022/05/25 01:58:36;;;;;;;;;;;;;;;6.27;64.91;101573.50;5098068;28;20031;-64
2022/05/25 02:01:05;;;;;;;10.70;4.80;;;;;;;6.26;66.70;101571.81;5115636;28;20333;-64
2022/05/25 02:06:28;;;;;;;6.43;4.10;;;;;;;6.33;66.39;101578.31;5115816;28;19919;-64
2022/05/25 02:09:21;;;;;;;5.53;3.80;;;;;;;6.37;65.81;101579.81;5115470;28;20050;-65
2022/05/25 02:11:50;;;;;;;7.00;4.50;;;;;;;6.38;66.78;101570.91;5115398;28;20067;-65
2022/05/25 02:14:31;;;;;;;8.23;4.00;;;;;;;6.41;66.45;101572.47;5115473;28;20122;-64
2022/05/25 02:17:17;;;;;;;6.00;3.97;;;;;;;6.43;66.78;101574.06;5115469;28;20044;-66
2022/05/25 02:20:05;;;;;;;9.13;4.30;;;;;;;6.41;67.22;101570.69;5115308;28;20116;-63
2022/05/25 02:22:41;;;;;;;11.65;5.22;;;;;;;6.44;66.93;101569.59;5114568;28;20050;-62
2022/05/25 02:25:14;;;;;;;13.60;5.70;;;;;;;6.47;67.05;101570.22;5097058;28;20043;-64
2022/05/25 02:27:46;;;;;;;8.47;5.50;;;;;;;6.43;67.82;101563.47;5115365;28;20031;-64
2022/05/25 02:30:17;;;;;;;10.73;6.53;;;;;;;6.46;66.80;101565.03;5115359;28;20056;-64
2022/05/25 02:33:05;;;;;;;11.53;7.67;;;;;;;6.23;67.55;101527.09;5115077;28;20096;-67
2022/05/25 02:35:34;;;;;;;13.27;5.33;;;;;;;6.56;67.21;101573.09;5115139;28;20062;-63
2022/05/25 02:38:04;;;;;;;9.90;5.10;;;;;;;6.55;66.87;101560.84;5115015;28;20490;-63
2022/05/25 02:40:32;;;;;;;12.33;6.17;;;;;;;6.59;66.98;101572.88;5114933;28;20056;-65
2022/05/25 02:42:57;;;;;;;9.70;5.40;;;;;;;6.62;67.25;101572.63;5114810;28;20042;-65
2022/05/25 02:45:22;;;;;;;12.20;5.37;;;;;;;6.65;67.19;101562.69;5096744;28;20036;-65
2022/05/25 02:47:48;;;;;;;11.30;5.13;;;;;;;6.78;66.70;101567.84;5096602;28;20042;-64
2022/05/25 02:50:14;;;;;;;7.77;4.47;;;;;;;6.83;66.10;101565.69;5096524;28;20039;-65
2022/05/25 02:52:39;;;;;;;7.33;4.57;;;;;;;6.82;66.27;101561.38;5114881;28;20567;-67
2022/05/25 02:55:05;;;;;;;7.27;5.30;;;;;;;7.82;64.37;101563.09;5114551;28;20066;-65
2022/05/25 02:57:32;;;;;;;7.80;5.13;;;;;;;9.90;58.07;101553.97;5114411;28;20071;-65
2022/05/25 02:59:57;;;;;;;7.43;4.77;;;;;;;12.40;50.85;101567.28;5114389;28;20082;-64
2022/05/25 03:02:22;;;;;;;8.53;4.07;;;;;;;14.18;45.51;101578.00;5114302;28;20510;-66
2022/05/25 03:04:50;;;;;;;8.40;4.33;;;;;;;15.20;42.62;101579.25;5114618;28;20101;-63
2022/05/25 03:07:16;;;;;;;5.63;3.97;;;;;;;15.83;40.82;101572.09;5114562;28;20035;-63
2022/05/25 03:09:41;;;;;;;10.57;5.10;;;;;;;16.37;39.83;101573.72;5114389;28;20035;-66
2022/05/25 03:12:08;;;;;;;7.60;4.13;;;;;;;16.85;39.13;101576.19;5095799;28;20046;-64
2022/05/25 03:14:34;;;;;;;6.40;4.20;;;;;;;17.26;37.68;101546.94;5114210;28;20449;-65
2022/05/25 03:17:10;;;;;;;9.13;4.10;;;;;;;17.54;36.42;101558.69;5114125;28;20039;-64
2022/05/25 03:19:37;;;;;;;7.33;5.00;;;;;;;17.72;36.76;101562.88;5114388;28;20096;-64
2022/05/25 03:22:02;;;;;;;10.00;5.40;;;;;;;18.05;35.95;101569.44;5114141;28;20036;-65
2022/05/25 03:24:28;;;;;;;5.03;4.17;;;;;;;18.38;35.59;101561.66;5095639;28;20398;-65
2022/05/25 03:26:54;;;;;;;8.63;5.10;;;;;;;18.67;35.33;101568.78;5114006;28;20039;-65
2022/05/25 03:29:20;;;;;;;7.20;4.50;;;;;;;19.00;34.52;101562.75;5113896;28;20438;-65
2022/05/25 03:31:46;;;;;;;6.77;4.27;;;;;;;18.99;33.82;101567.31;5113959;28;20036;-63
2022/05/25 03:34:11;;;;;;;12.10;5.00;;;;;;;19.11;33.75;101564.94;5113625;28;20482;-63
2022/05/25 03:36:37;;;;;;;4.57;4.13;;;;;;;19.08;33.71;101549.97;5113732;28;20040;-64
2022/05/25 03:39:02;;;;;;;6.50;4.13;;;;;;;18.79;34.25;101555.56;5113748;28;20084;-65
2022/05/25 03:41:28;;;;;;;7.37;5.07;;;;;;;17.61;36.21;101558.75;5113784;28;20035;-64
2022/05/25 03:43:54;;;;;;;8.30;4.03;;;;;;;16.44;38.44;101571.13;5113690;28;20486;-69
2022/05/25 03:46:19;;;;;;;6.30;4.33;;;;;;;15.87;39.51;101566.19;5095554;28;20036;-64
2022/05/25 03:48:45;;;;;;;7.93;5.33;;;;;;;15.12;41.54;101566.69;5095249;28;20038;-63
2022/05/25 03:51:10;;;;;;;7.47;5.40;;;;;;;14.79;43.04;101570.47;5113574;28;20028;-63
2022/05/25 03:53:36;;;;;;;13.13;6.07;;;;;;;15.48;41.32;101567.03;5113386;28;20027;-65
2022/05/25 03:56:05;;;;;;;10.30;6.13;;;;;;;16.64;38.82;101563.41;5113369;28;20496;-63
2022/05/25 03:58:30;;;;;;;11.27;6.40;;;;;;;17.77;36.27;101565.81;5113237;28;20495;-65
2022/05/25 04:00:56;;;;;;;10.57;7.00;;;;;;;18.18;35.73;101574.13;5113893;28;20119;-66
2022/05/25 04:03:22;;;;;;;13.13;8.73;;;;;;;18.68;34.73;101572.31;5113561;28;20104;-64
2022/05/25 04:05:50;;;;;;;13.37;7.50;;;;;;;19.05;34.38;101571.09;5113147;28;20051;-65
2022/05/25 04:08:16;;;;;;;13.10;7.28;;;;;;;19.33;33.74;101566.47;5094642;28;20130;-65
2022/05/25 04:10:42;;;;;;;10.90;7.00;;;;;;;19.23;33.42;101568.72;5094521;28;20118;-65
2022/05/25 04:13:07;;;;;;;12.43;6.53;;;;;;;19.03;33.41;101563.19;5112938;28;20023;-65
2022/05/25 04:15:34;;;;;;;12.60;6.87;;;;;;;18.99;33.94;101570.03;5113198;28;20501;-66
2022/05/25 04:18:00;;;;;;;12.30;6.90;;;;;;;19.15;33.37;101568.88;5113155;28;20089;-65
2022/05/25 04:20:28;;;;;;;10.90;6.53;;;;;;;19.29;33.37;101561.69;5112903;28;20032;-66
2022/05/25 04:22:54;;;;;;;8.05;6.00;;;;;;;19.20;33.36;101563.72;5113030;28;20063;-64
2022/05/25 04:25:22;;;;;;;7.77;5.57;;;;;;;18.98;33.72;101554.88;5112883;28;20051;-64
2022/05/25 04:27:50;;;;;;;8.27;5.63;;;;;;;18.96;33.27;101529.09;5112923;28;20470;-64
2022/05/25 04:30:21;;;;;;;12.25;6.03;;;;;;;19.43;32.67;101542.63;5112803;28;20112;-63
2022/05/25 04:32:47;;;;;;;13.13;6.30;;;;;;;19.37;32.89;101565.06;5112530;28;20046;-66
2022/05/25 04:35:14;;;;;;;8.53;5.77;;;;;;;19.29;33.14;101557.09;5112974;28;20047;-65
2022/05/25 04:37:49;;;;;;;8.70;4.87;;;;;;;19.23;32.62;101552.50;5112582;28;20108;-64
2022/05/25 04:40:17;;;;;;;6.43;5.07;;;;;;;19.23;32.27;101557.09;5112527;28;20038;-64
2022/05/25 04:42:43;;;;;;;7.20;3.70;;;;;;;19.20;30.96;101550.22;5112640;28;20384;-65
2022/05/25 04:45:12;;;;;;;6.90;4.33;;;;;;;19.43;31.40;101553.44;5112428;28;20389;-65
2022/05/25 04:47:40;;;;;;;9.23;4.70;;;;;;;19.57;31.46;101554.34;5112326;28;20125;-64
2022/05/25 04:50:07;;;;;;;10.07;5.33;;;;;;;19.43;32.39;101555.31;5093518;28;20486;-61
2022/05/25 04:52:34;;;;;;;5.50;3.53;;;;;;;19.08;31.22;101546.41;5111877;28;20031;-65
2022/05/25 04:54:59;;;;;;;7.53;3.90;;;;;;;19.01;31.92;101550.94;5112067;28;20035;-65
2022/05/25 04:57:27;;;;;;;10.00;4.07;;;;;;;18.93;32.08;101540.31;5112548;28;20058;-64
2022/05/25 04:59:59;;;;;;;10.87;6.63;;;;;;;18.73;32.31;101550.97;5112502;28;20035;-62
2022/05/25 05:02:29;;;;;;;6.90;4.20;;;;;;;18.44;32.32;101538.47;5112203;28;20085;-62
2022/05/25 05:04:56;;;;;;;7.80;4.17;;;;;;;18.53;32.68;101545.41;5112433;28;20055;-63
2022/05/25 05:07:34;;;;;;;5.88;3.88;;;;;;;18.49;33.26;101550.34;5111938;28;20054;-65
2022/05/25 05:10:01;;;;;;;6.38;4.20;;;;;;;18.12;33.33;101548.78;5094106;28;20141;-64
2022/05/25 05:12:30;;;;;;;10.33;4.37;;;;;;;17.33;34.11;101553.22;5093763;28;20028;-65
2022/05/25 05:14:57;;;;;;;8.63;3.27;;;;;;;16.63;35.35;101543.72;5094096;28;20032;-63
2022/05/25 05:17:23;;;;;;;9.70;3.73;;;;;;;15.60;37.33;101554.09;5112186;28;20044;-65
2022/05/25 05:19:49;;;;;;;12.13;4.17;;;;;;;14.45;39.46;101547.38;5112159;28;20158;-64
2022/05/25 05:22:14;;;;;;;5.13;3.77;;;;;;;13.65;41.30;101554.31;5116483;28;20051;-66
2022/05/25 05:24:40;;;;;;;7.93;4.13;;;;;;;12.99;44.19;101542.47;5116150;28;20508;-65
2022/05/25 05:27:06;;;;;;;9.17;4.37;;;;;;;12.58;45.40;101552.06;5116441;28;20490;-64
2022/05/25 05:29:32;;;;;;;7.93;4.20;;;;;;;12.25;45.39;101552.81;5116355;28;20044;-65
2022/05/25 05:31:58;;;;;;;8.87;3.63;;;;;;;12.09;46.04;101543.66;5116576;28;20046;-66
2022/05/25 05:34:28;;;;;;;6.53;3.77;;;;;;;12.03;46.11;101549.63;5116521;28;20047;-63
2022/05/25 05:37:12;;;;;;;7.37;4.47;;;;;;;12.08;46.23;101544.66;5116544;28;20051;-65
2022/05/25 05:39:42;;;;;;;8.93;4.80;;;;;;;12.03;46.28;101548.78;5116167;28;20035;-63
2022/05/25 05:42:12;;;;;;;6.43;3.90;;;;;;;11.79;47.01;101546.72;5115597;28;20164;-64
2022/05/25 05:44:44;;;;;;;10.43;4.30;;;;;;;11.68;47.73;101528.22;5115824;28;20104;-63
2022/05/25 05:47:15;;;;;;;8.27;4.27;;;;;;;11.74;47.84;101531.13;5115684;28;20078;-65
2022/05/25 05:49:41;;;;;;;7.87;4.40;;;;;;;11.90;46.62;101543.00;5116018;28;20035;-64
2022/05/25 05:52:09;;;;;;;7.73;3.83;;;;;;;11.55;47.29;101501.91;5115810;28;20385;-67
2022/05/25 05:54:36;;;;;;;8.40;3.70;;;;;;;11.64;45.93;101533.03;5115139;28;20044;-64
2022/05/25 05:57:01;;;;;;;10.47;3.40;;;;;;;11.59;44.81;101508.63;5096951;28;20043;-69
2022/05/25 05:59:27;;;;;;;8.80;3.30;;;;;;;11.75;45.74;101535.47;5080247;28;20031;-67
2022/05/25 06:01:53;;;;;;;7.50;3.83;;;;;;;11.72;46.38;101537.59;5116070;28;20080;-64
2022/05/25 06:04:19;;;;;;;8.13;4.20;;;;;;;11.76;45.92;101530.97;5115403;28;20056;-64
2022/05/25 06:06:45;;;;;;;7.40;3.43;;;;;;;11.72;45.39;101530.44;5115610;28;20093;-61
2022/05/25 06:09:13;;;;;;;7.43;3.53;;;;;;;11.70;45.44;101526.25;5096976;28;20532;-61
2022/05/25 06:11:41;;;;;;;6.23;3.43;;;;;;;11.66;45.98;101515.03;5115305;28;20027;-60
2022/05/25 06:14:08;;;;;;;4.85;2.88;;;;;;;11.83;46.60;101532.06;5115087;28;20114;-60
2022/05/25 06:19:26;;;;;;;11.27;4.33;;;;;;;11.95;44.58;101528.19;5115255;28;20027;-64
2022/05/25 06:22:00;;;;;;;10.97;3.17;;;;;;;11.87;44.53;101522.78;5115177;28;20046;-62
2022/05/25 06:24:27;;;;;;;7.50;3.50;;;;;;;11.93;44.25;101513.34;5114906;28;20039;-64
2022/05/25 06:26:53;;;;;;;7.43;3.13;;;;;;;11.97;44.87;101517.38;5115238;28;20449;-63
2022/05/25 06:29:19;;;;;;;6.70;2.73;;;;;;;12.07;45.21;101526.13;5096655;28;20031;-62
2022/05/25 06:31:45;;;;;;;7.17;3.17;;;;;;;12.07;45.44;101508.28;5114346;28;20038;-63
2022/05/25 06:34:10;;;;;;;7.13;2.93;;;;;;;12.28;44.09;101528.47;5114936;28;20106;-63
2022/05/25 06:36:36;;;;;;;6.07;3.77;;;;;;;12.17;44.00;101529.56;5114804;28;20460;-63
2022/05/25 06:39:01;;;;;;;5.07;2.90;;;;;;;11.92;43.96;101512.50;5114704;28;20114;-63
2022/05/25 06:41:28;;;;;;;6.70;3.23;;;;;;;11.97;45.49;101526.22;5115315;28;20063;-63
2022/05/25 06:43:54;;;;;;;9.43;3.17;;;;;;;11.98;44.39;101519.88;5114820;28;20129;-63
2022/05/25 06:46:20;;;;;;;9.37;3.40;;;;;;;11.92;43.67;101520.50;5115089;28;20118;-65
2022/05/25 06:48:51;;;;;;;6.60;2.47;;;;;;;11.92;43.50;101517.84;5114617;28;20478;-63
2022/05/25 06:51:23;;;;;;;17.27;6.00;;;;;;;12.03;44.49;101522.94;5114562;28;20486;-64
2022/05/25 06:53:49;;;;;;;8.23;2.87;;;;;;;12.09;43.54;101511.63;5114604;28;20088;-64
2022/05/25 06:56:16;;;;;;;16.90;4.63;;;;;;;12.08;43.00;101515.28;5114429;28;20035;-63
2022/05/25 06:58:43;;;;;;;7.67;2.90;;;;;;;12.05;42.75;101515.59;5114555;28;20398;-63
2022/05/25 07:01:09;;;;;;;20.03;3.83;;;;;;;11.99;43.21;101516.22;5114467;28;20035;-64
2022/05/25 07:03:40;;;;;;;7.53;2.90;;;;;;;12.08;43.30;101509.94;5114237;28;20147;-63
2022/05/25 07:06:08;;;;;;;7.23;3.30;;;;;;;12.22;44.63;101499.72;5095728;28;20452;-64
2022/05/25 07:08:34;;;;;;;5.30;2.80;;;;;;;12.40;43.70;101503.19;5114288;28;20050;-63
2022/05/25 07:11:00;;;;;;;5.87;2.80;;;;;;;12.53;43.80;101498.28;5114171;28;20338;-64
2022/05/25 07:13:27;;;;;;;7.93;3.03;;;;;;;12.52;42.56;101496.59;5114322;28;20028;-63
2022/05/25 07:16:06;;;;;;;4.23;2.97;;;;;;;12.47;42.58;101500.75;5114179;28;20474;-63
2022/05/25 07:18:32;;;;;;;8.53;3.00;;;;;;;12.38;42.96;101494.47;5114021;28;20037;-63
2022/05/25 07:21:06;;;;;;;5.80;2.87;;;;;;;12.43;43.23;101508.22;5113937;28;20462;-62
2022/05/25 07:23:33;;;;;;;6.80;3.00;;;;;;;12.46;42.33;101493.72;5114393;28;20121;-64
2022/05/25 07:25:58;;;;;;;8.80;2.80;;;;;;;12.34;43.25;101461.06;5113848;28;20428;-64
2022/05/25 07:28:24;;;;;;;14.20;3.13;;;;;;;12.48;43.62;101497.06;5114374;28;20042;-62
2022/05/25 07:30:54;;;;;;;10.53;3.10;;;;;;;12.50;43.52;101495.09;5113970;28;20035;-63
2022/05/25 07:33:20;;;;;;;9.13;3.03;;;;;;;12.58;43.56;101493.28;5113993;28;20062;-62
2022/05/25 07:35:45;;;;;;;8.70;3.87;;;;;;;12.60;43.55;101501.16;5113938;28;20031;-63
2022/05/25 07:38:11;;;;;;;8.87;2.73;;;;;;;12.52;43.66;101495.75;5113841;28;20122;-64
2022/05/25 07:40:41;;;;;;;11.63;4.80;;;;;;;12.52;43.36;101495.75;5113799;28;20038;-63
2022/05/25 07:43:20;;;;;;;7.13;3.00;;;;;;;12.51;43.38;101480.72;5113251;28;20039;-63
2022/05/25 07:45:46;;;;;;;7.40;3.10;;;;;;;12.66;42.38;101492.50;5113485;28;20044;-63
2022/05/25 07:48:12;;;;;;;7.03;3.10;;;;;;;12.74;42.51;101491.72;5095538;28;20038;-63
2022/05/25 07:50:38;;;;;;;9.13;3.53;;;;;;;12.74;42.60;101494.41;5113536;28;20173;-62
2022/05/25 07:53:55;;;;;;;11.10;3.47;;;;;;;12.60;42.76;101475.25;5113603;28;20438;-63
2022/05/25 07:55:51;;;;;;;10.97;3.57;;;;;;;12.69;42.33;101493.00;5113304;28;20039;-64
2022/05/25 07:58:19;;;;;;;4.53;2.63;;;;;;;12.67;42.32;101484.31;5113245;28;20042;-63
2022/05/25 08:00:45;;;;;;;4.55;3.45;;;;;;;12.73;42.25;101487.38;5113371;28;20080;-64
2022/05/25 08:06:00;;;;;;;6.80;3.33;;;;;;;13.00;44.86;101484.47;5113302;28;20043;-63
2022/05/25 08:08:26;;;;;;;8.73;3.83;;;;;;;13.07;42.79;101477.50;5113044;28;20044;-63
2022/05/25 08:10:55;;;;;;;10.40;4.37;;;;;;;13.16;43.02;101481.88;5113237;28;20046;-64
2022/05/25 08:13:23;;;;;;;9.30;4.23;;;;;;;13.23;42.18;101477.56;5113094;28;20043;-63
2022/05/25 08:15:49;;;;;;;5.20;3.00;;;;;;;13.23;41.67;101474.91;5113069;28;20509;-63
2022/05/25 08:18:17;;;;;;;11.87;8.27;;;;;;;13.25;41.79;101472.91;5113262;28;20035;-65
2022/05/25 08:20:43;;;;;;;7.93;3.30;;;;;;;13.28;41.46;101467.22;5113032;28;20062;-64
2022/05/25 08:23:10;;;;;;;5.87;3.47;;;;;;;13.39;42.34;101474.13;5112715;28;20042;-64
2022/05/25 08:25:37;;;;;;;5.27;3.00;;;;;;;13.49;42.69;101463.25;5112711;28;20074;-63
2022/05/25 08:28:04;;;;;;;9.10;3.77;;;;;;;13.56;41.67;101458.91;5112908;28;20410;-64
2022/05/25 08:30:32;;;;;;;10.67;3.57;;;;;;;13.60;40.58;101462.97;5112852;28;20035;-64
2022/05/25 08:32:58;;;;;;;5.32;2.90;;;;;;;13.66;40.46;101464.97;5112957;28;20035;-64
2022/05/25 08:35:24;;;;;;;6.23;3.97;;;;;;;13.63;40.86;101460.78;5112652;28;20100;-64
2022/05/25 08:37:50;;;;;;;7.13;3.10;;;;;;;13.63;41.00;101470.66;5112421;28;20039;-63
2022/05/25 08:40:19;;;;;;;7.20;3.83;;;;;;;13.68;41.24;101467.50;5112564;28;20035;-63
2022/05/25 08:43:03;;;;;;;9.43;3.10;;;;;;;13.71;41.20;101461.81;5112635;28;20035;-64
2022/05/25 08:45:36;;;;;;;10.63;3.70;;;;;;;13.77;40.37;101461.97;5094501;28;20036;-64
2022/05/25 08:48:05;;;;;;;8.13;3.63;;;;;;;13.88;40.13;101456.31;5112716;28;20055;-63
2022/05/25 08:50:31;;;;;;;9.37;3.40;;;;;;;13.97;40.83;101456.28;5112690;28;20043;-65
2022/05/25 08:52:59;;;;;;;12.80;4.67;;;;;;;13.94;39.88;101450.25;5112607;28;20055;-64
2022/05/25 08:55:45;;;;;;;6.47;3.77;;;;;;;14.04;40.02;101457.28;5112206;28;20031;-62
2022/05/25 08:58:12;;;;;;;9.10;3.40;;;;;;;14.11;40.14;101455.59;5112495;28;20031;-65
2022/05/25 09:00:38;;;;;;;10.90;4.00;;;;;;;14.11;39.49;101455.59;5112128;28;20413;-65
2022/05/25 09:03:32;;;;;;;10.87;3.40;;;;;;;14.04;39.40;101451.94;5093792;28;20043;-64
2022/05/25 09:06:14;;;;;;;9.37;4.13;;;;;;;13.91;39.60;101442.56;5112031;28;20529;-65
2022/05/25 09:09:15;;;;;;;8.13;3.50;;;;;;;13.99;39.23;101440.88;5112410;28;20050;-64
2022/05/25 09:11:45;;;;;;;7.77;3.53;;;;;;;13.98;39.33;101418.63;5112358;28;20040;-63
2022/05/25 09:14:24;;;;;;;9.27;3.20;;;;;;;14.05;39.12;101437.53;5112339;28;20039;-66
2022/05/25 09:16:54;;;;;;;6.35;3.70;;;;;;;14.07;39.04;101435.53;5112321;28;20035;-66
2022/05/25 09:19:24;;;;;;;7.40;3.63;;;;;;;14.15;39.32;101424.78;5111899;28;20128;-64
2022/05/25 09:21:58;;;;;;;9.20;3.80;;;;;;;14.26;38.66;101427.13;5112062;28;20043;-64
2022/05/25 09:24:26;;;;;;;8.13;3.30;;;;;;;14.31;38.92;101424.78;5112154;28;20104;-66
2022/05/25 09:26:52;;;;;;;9.05;3.70;;;;;;;14.34;38.95;101421.75;5111988;28;20028;-63
2022/05/25 09:29:20;;;;;;;8.97;4.63;;;;;;;14.46;38.29;101428.47;5112158;28;20032;-63
2022/05/25 09:31:58;;;;;;;7.63;4.27;;;;;;;14.44;38.27;101419.72;5111615;28;20030;-64
2022/05/25 09:34:53;;;;;;;11.02;3.53;;;;;;;14.61;38.25;101428.56;5112238;28;20032;-64
2022/05/25 09:37:42;;;;;;;10.60;3.90;;;;;;;14.73;37.86;101420.97;5112166;28;20039;-66
2022/05/25 09:40:24;;;;;;;8.57;3.03;;;;;;;14.80;38.63;101417.44;5112052;28;20562;-65
2022/05/25 09:42:53;;;;;;;8.00;3.70;;;;;;;14.91;38.60;101413.53;5112086;28;20106;-64
2022/05/25 09:45:19;;;;;;;11.07;3.60;;;;;;;15.04;38.93;101397.72;5111952;28;20032;-64
2022/05/25 09:47:47;;;;;;;10.47;4.47;;;;;;;15.14;37.91;101402.84;5111895;28;20404;-63
2022/05/25 09:50:27;;;;;;;9.27;3.97;;;;;;;15.13;37.53;101396.66;5111895;28;20042;-63
2022/05/25 09:52:54;;;;;;;10.03;3.67;;;;;;;15.15;37.24;101400.00;5111988;28;20077;-64
2022/05/25 09:55:33;;;;;;;7.83;3.97;;;;;;;15.09;37.83;101397.19;5111730;28;20035;-66
2022/05/25 09:58:05;;;;;;;8.77;3.97;;;;;;;15.22;38.21;101397.44;5112053;28;20066;-65
2022/05/25 10:00:33;;;;;;;7.77;3.97;;;;;;;15.34;37.02;101403.25;5093875;28;20035;-67
2022/05/25 10:03:10;;;;;;;8.65;3.60;;;;;;;15.27;36.27;101391.53;5111935;28;20039;-65
2022/05/25 10:06:38;;;;;;;10.07;4.07;;;;;;;15.32;36.66;101398.03;5111804;28;20357;-64
2022/05/25 10:09:20;;;;;;;14.50;5.90;;;;;;;15.34;36.46;101387.16;5039819;28;20450;-67
2022/05/25 10:11:56;;;;;;;9.07;3.93;;;;;;;15.42;37.32;101376.34;5115629;28;20486;-64
2022/05/25 10:14:30;;;;;;;5.23;3.70;;;;;;;15.59;36.59;101377.91;5115758;28;20039;-63
2022/05/25 10:17:14;;;;;;;8.53;4.83;;;;;;;15.63;36.42;101373.88;5115411;28;20475;-65
2022/05/25 10:19:53;;;;;;;7.97;3.37;;;;;;;15.64;36.43;101362.09;5115234;28;20039;-65
2022/05/25 10:22:41;;;;;;;9.67;4.93;;;;;;;15.70;36.60;101369.44;5115685;28;20031;-66
2022/05/25 10:25:21;;;;;;;10.87;4.90;;;;;;;15.70;35.87;101353.31;5115273;28;20512;-64
2022/05/25 10:27:48;;;;;;;5.50;2.93;;;;;;;15.62;36.34;101364.13;5097041;28;20137;-64
2022/05/25 10:39:20;;;;;;;7.57;3.40;;;;;;;15.68;36.66;101346.47;5115125;28;20045;-65
2022/05/25 10:42:26;;;;;;;6.30;3.93;;;;;;;15.71;35.99;101341.56;5115047;28;20050;-67
2022/05/25 10:45:15;;;;;;;12.00;4.50;;;;;;;15.83;35.56;101335.72;5096417;28;20035;-64
2022/05/25 10:47:54;;;;;;;8.33;5.37;;;;;;;15.86;35.39;101322.78;5115181;28;20043;-64
2022/05/25 10:50:22;;;;;;;18.50;5.57;;;;;;;15.88;35.15;101325.28;5114699;28;20046;-64
2022/05/25 10:52:59;;;;;;;6.60;3.35;;;;;;;15.92;35.02;101338.19;5096458;28;20039;-65
2022/05/25 10:55:34;;;;;;;8.03;4.03;;;;;;;15.94;35.35;101313.81;5114548;28;20394;-66
2022/05/25 10:58:21;;;;;;;5.20;3.60;;;;;;;16.07;34.88;101328.25;5114922;28;20031;-63
2022/05/25 11:00:59;;;;;;;7.97;3.47;;;;;;;16.11;34.75;101331.41;5114573;28;20023;-65
2022/05/25 11:03:38;;;;;;;6.43;3.70;;;;;;;16.16;34.91;101323.63;5114645;28;20091;-66
2022/05/25 11:06:27;;;;;;;4.77;3.47;;;;;;;16.25;34.44;101316.31;5114484;28;20158;-64
2022/05/25 11:08:56;;;;;;;9.80;3.23;;;;;;;16.16;34.27;101310.19;5080581;28;20050;-64
2022/05/25 11:11:36;;;;;;;5.25;3.40;;;;;;;16.20;33.39;101297.25;5114232;28;20051;-65
2022/05/25 11:14:10;;;;;;;5.40;3.40;;;;;;;16.25;33.74;101301.03;5114580;28;20047;-64
2022/05/25 11:16:45;;;;;;;10.73;4.30;;;;;;;16.28;34.43;101292.59;5114624;28;20039;-64
2022/05/25 11:19:21;;;;;;;8.40;3.27;;;;;;;16.29;34.00;101296.09;5095934;28;20035;-65
2022/05/25 11:21:49;;;;;;;8.97;3.73;;;;;;;16.36;34.15;101299.72;5114442;28;20085;-66
2022/05/25 11:24:50;;;;;;;6.75;3.83;;;;;;;16.40;33.62;101299.13;5112584;28;20139;-65
2022/05/25 11:27:30;;;;;;;7.00;3.73;;;;;;;16.38;33.72;101293.13;5095868;28;20053;-64
2022/05/25 11:30:13;;;;;;;7.87;3.57;;;;;;;16.33;33.52;101265.16;5095423;28;20032;-64
2022/05/25 11:33:02;;;;;;;12.17;4.70;;;;;;;16.40;35.52;101284.88;5113829;28;20034;-65
2022/05/25 11:35:54;;;;;;;12.80;5.30;;;;;;;16.47;36.06;101287.63;5096008;28;20043;-65
2022/05/25 11:38:47;;;;;;;5.20;3.07;;;;;;;16.49;35.26;101280.25;5113950;28;20032;-65
2022/05/25 11:41:26;;;;;;;7.27;3.37;;;;;;;16.49;35.04;101280.25;5082692;28;20699;-63
2022/05/25 11:44:15;;;;;;;7.00;3.23;;;;;;;16.50;35.72;101281.91;5113634;28;20032;-65
2022/05/25 11:46:50;;;;;;;6.87;3.63;;;;;;;16.48;34.87;101275.84;5113621;28;20458;-64
2022/05/25 11:49:27;;;;;;;7.13;3.27;;;;;;;16.62;34.37;101269.63;5113597;28;20490;-64
2022/05/25 11:52:21;;;;;;;8.27;3.30;;;;;;;16.72;34.70;101265.63;5113560;28;20035;-64
2022/05/25 11:55:06;;;;;;;9.27;4.23;;;;;;;16.85;33.62;101274.88;5113903;28;20039;-64
2022/05/25 11:57:50;;;;;;;7.80;3.50;;;;;;;16.93;32.73;101269.38;5113770;28;20035;-69
2022/05/25 12:00:31;;;;;;;6.40;3.67;;;;;;;17.03;32.11;101262.63;5114176;28;20398;-67
2022/05/25 12:02:56;;;;;;;18.10;4.80;;;;;;;17.14;33.77;101257.78;5115636;28;20107;-68